Time;durP1;ratioP1;P1;durP2;ratioP2;P2;SDS_P1;SDS_P2;PMS_P1;PMS_P2;Temp;Humidity;BMP_temperature;BMP_pressure;BME280_temperature;BME280_humidity;BME280_pressure;Samples;Min_cycle;Max_cycle;Signal;HPM_P1;HPM_P2
2022/01/05 00:00:44;;;;;;;10.17;2.80;;;1.40;99.90;;;;;;5028286;28;20076;-83
2022/01/05 00:03:10;;;;;;;7.57;1.10;;;1.30;99.90;;;;;;5012953;28;20034;-82
2022/01/05 00:05:36;;;;;;;8.33;1.30;;;1.40;99.90;;;;;;5006990;28;20053;-82
2022/01/05 00:08:01;;;;;;;9.60;1.60;;;1.50;99.90;;;;;;5032478;28;20120;-82
2022/01/05 00:10:27;;;;;;;8.80;1.40;;;1.50;99.90;;;;;;5031685;28;20175;-82
2022/01/05 00:12:53;;;;;;;6.83;1.60;;;1.60;99.90;;;;;;5030533;28;20100;-83
2022/01/05 00:15:19;;;;;;;9.70;1.53;;;1.60;99.90;;;;;;5013981;28;20033;-82
2022/01/05 00:17:44;;;;;;;9.97;1.63;;;1.70;99.90;;;;;;5022232;28;20044;-83
2022/01/05 00:20:11;;;;;;;8.97;1.60;;;1.70;99.90;;;;;;5007310;28;20124;-82
2022/01/05 00:22:36;;;;;;;10.20;2.10;;;1.70;99.90;;;;;;5013967;28;20071;-82
2022/01/05 00:25:03;;;;;;;8.23;1.90;;;1.80;99.90;;;;;;5030760;28;20466;-82
2022/01/05 00:27:28;;;;;;;6.87;1.47;;;1.90;99.90;;;;;;5013215;28;20100;-82
2022/01/05 00:29:54;;;;;;;7.97;1.50;;;1.90;99.90;;;;;;5030781;28;20041;-82
2022/01/05 00:32:20;;;;;;;10.73;1.60;;;1.90;99.90;;;;;;5021984;28;20034;-83
2022/01/05 00:34:46;;;;;;;8.90;1.90;;;1.80;99.90;;;;;;5022114;28;20116;-82
2022/01/05 00:37:11;;;;;;;11.00;1.70;;;1.80;99.90;;;;;;5024929;28;20561;-82
2022/01/05 00:39:37;;;;;;;10.93;1.80;;;1.80;99.90;;;;;;5029057;28;20411;-82
2022/01/05 00:42:03;;;;;;;7.13;1.80;;;1.80;99.90;;;;;;5010087;28;20041;-82
2022/01/05 00:44:29;;;;;;;9.90;1.90;;;1.80;99.90;;;;;;5031013;28;20124;-83
2022/01/05 00:46:54;;;;;;;10.70;2.17;;;1.80;99.90;;;;;;5013713;28;20073;-83
2022/01/05 00:49:20;;;;;;;8.33;1.40;;;1.80;99.90;;;;;;5019659;28;20041;-82
2022/01/05 00:51:45;;;;;;;7.67;2.00;;;1.80;99.90;;;;;;5026116;28;20037;-83
2022/01/05 00:54:11;;;;;;;11.63;1.90;;;1.80;99.90;;;;;;5014797;28;20033;-83
2022/01/05 00:56:37;;;;;;;8.97;2.00;;;1.80;99.90;;;;;;5026202;28;20177;-83
2022/01/05 00:59:03;;;;;;;8.07;2.40;;;1.90;99.90;;;;;;5022645;28;20492;-83
2022/01/05 01:01:28;;;;;;;10.47;1.90;;;1.90;99.90;;;;;;5006317;28;20117;-82
2022/01/05 01:03:54;;;;;;;8.27;1.90;;;1.90;99.90;;;;;;5028505;28;20077;-83
2022/01/05 01:06:19;;;;;;;14.73;1.80;;;1.90;99.90;;;;;;5029549;28;20037;-82
2022/01/05 01:08:45;;;;;;;10.53;1.90;;;1.90;99.90;;;;;;5019440;28;20133;-83
2022/01/05 01:11:10;;;;;;;10.40;2.13;;;2.00;99.90;;;;;;5002457;28;20034;-82
2022/01/05 01:13:36;;;;;;;8.47;1.50;;;2.10;99.90;;;;;;5030783;28;20050;-83
2022/01/05 01:16:02;;;;;;;11.60;1.87;;;2.10;99.90;;;;;;5011565;28;20025;-83
2022/01/05 01:18:27;;;;;;;12.67;2.00;;;2.10;99.90;;;;;;5019668;28;20084;-83
2022/01/05 01:20:53;;;;;;;10.33;1.70;;;2.20;99.90;;;;;;5016794;28;20045;-83
2022/01/05 01:23:21;;;;;;;13.87;1.53;;;2.30;99.90;;;;;;5030316;28;20053;-83
2022/01/05 01:25:48;;;;;;;11.07;1.90;;;2.30;99.90;;;;;;5003888;28;20044;-82
2022/01/05 01:28:14;;;;;;;12.50;2.27;;;2.30;99.90;;;;;;5027056;28;20071;-83
2022/01/05 01:30:40;;;;;;;11.30;2.20;;;2.40;99.90;;;;;;5030254;28;20112;-83
2022/01/05 01:33:07;;;;;;;11.70;1.90;;;2.40;99.90;;;;;;5014732;28;20096;-83
2022/01/05 01:35:32;;;;;;;13.53;2.13;;;2.40;99.90;;;;;;5022134;28;20037;-82
2022/01/05 01:37:58;;;;;;;13.03;2.07;;;2.50;99.90;;;;;;5010270;28;20056;-83
2022/01/05 01:40:24;;;;;;;15.70;2.47;;;2.50;99.90;;;;;;5029373;28;20107;-83
2022/01/05 01:42:50;;;;;;;14.17;2.27;;;2.50;99.90;;;;;;5030152;28;20082;-83
2022/01/05 01:45:15;;;;;;;11.57;1.92;;;2.50;99.90;;;;;;5029661;28;20041;-83
2022/01/05 01:47:42;;;;;;;8.95;1.50;;;2.50;99.90;;;;;;5025808;28;20041;-83
2022/01/05 01:50:09;;;;;;;7.93;1.88;;;2.50;99.90;;;;;;5023918;28;20052;-83
2022/01/05 01:52:35;;;;;;;7.88;1.85;;;2.50;99.90;;;;;;5021125;28;20029;-83
2022/01/05 01:55:01;;;;;;;13.88;2.05;;;2.50;99.90;;;;;;5025309;28;20088;-83
2022/01/05 01:57:30;;;;;;;13.53;2.13;;;2.50;99.90;;;;;;5003550;28;20449;-83
2022/01/05 01:59:58;;;;;;;8.43;1.53;;;2.50;99.90;;;;;;4998961;28;20053;-83
2022/01/05 02:02:24;;;;;;;10.60;1.90;;;2.50;99.90;;;;;;5003945;28;20042;-83
2022/01/05 02:04:49;;;;;;;7.63;1.70;;;2.50;99.90;;;;;;5015771;28;20044;-83
2022/01/05 02:07:15;;;;;;;14.77;1.83;;;2.50;99.90;;;;;;5030573;28;20076;-83
2022/01/05 02:09:41;;;;;;;9.60;1.73;;;2.50;99.90;;;;;;5008064;28;20037;-83
2022/01/05 02:12:07;;;;;;;8.45;1.90;;;2.50;99.90;;;;;;5021615;28;20471;-83
2022/01/05 02:14:33;;;;;;;17.63;2.57;;;2.40;99.90;;;;;;5029763;28;20449;-83
2022/01/05 02:17:03;;;;;;;10.40;1.90;;;2.50;99.90;;;;;;4999685;28;20042;-83
2022/01/05 02:19:29;;;;;;;7.45;1.65;;;2.40;99.90;;;;;;5031235;28;20041;-84
2022/01/05 02:21:54;;;;;;;10.13;1.92;;;2.40;99.90;;;;;;5006824;28;20100;-83
2022/01/05 02:24:20;;;;;;;9.83;1.93;;;2.50;99.90;;;;;;5017344;28;20499;-84
2022/01/05 02:26:46;;;;;;;12.13;2.63;;;2.40;99.90;;;;;;5027221;28;20136;-83
2022/01/05 02:29:11;;;;;;;12.40;1.88;;;2.50;99.90;;;;;;5024836;28;20724;-83
2022/01/05 02:31:37;;;;;;;11.05;2.08;;;2.50;99.90;;;;;;5022014;28;20052;-83
2022/01/05 02:34:03;;;;;;;14.77;2.15;;;2.60;99.90;;;;;;5028994;28;20136;-84
2022/01/05 02:36:29;;;;;;;12.37;2.10;;;2.60;99.90;;;;;;5025090;28;20041;-84
2022/01/05 02:38:55;;;;;;;11.95;2.15;;;2.60;99.90;;;;;;5012137;28;20050;-83
2022/01/05 02:41:20;;;;;;;15.30;2.15;;;2.70;99.90;;;;;;5028956;28;20029;-84
2022/01/05 02:43:47;;;;;;;15.88;2.42;;;2.70;99.90;;;;;;4999898;28;20033;-84
2022/01/05 02:46:18;;;;;;;11.90;2.50;;;2.70;99.90;;;;;;5028002;28;20677;-84
2022/01/05 02:48:45;;;;;;;13.85;1.88;;;2.80;99.90;;;;;;5028713;28;20121;-83
2022/01/05 02:51:11;;;;;;;8.98;1.80;;;2.80;99.90;;;;;;5004071;28;20040;-83
2022/01/05 02:53:36;;;;;;;8.85;1.95;;;2.80;99.90;;;;;;5032687;28;20384;-83
2022/01/05 02:56:02;;;;;;;19.13;2.45;;;2.80;99.90;;;;;;5013150;28;20041;-83
2022/01/05 02:58:27;;;;;;;12.02;1.80;;;2.80;99.90;;;;;;5030347;28;20112;-83
2022/01/05 03:00:53;;;;;;;12.88;2.17;;;2.80;99.90;;;;;;5011215;28;20096;-81
2022/01/05 03:03:18;;;;;;;13.10;2.50;;;2.80;99.90;;;;;;5027893;28;20038;-83
2022/01/05 03:05:44;;;;;;;15.13;2.80;;;2.80;99.90;;;;;;5025454;28;20041;-83
2022/01/05 03:08:10;;;;;;;11.52;2.75;;;2.90;99.90;;;;;;5012613;28;20025;-83
2022/01/05 03:10:36;;;;;;;16.17;2.80;;;2.90;99.90;;;;;;5032736;28;20517;-83
2022/01/05 03:13:02;;;;;;;13.27;1.90;;;3.00;99.90;;;;;;5036322;28;20449;-83
2022/01/05 03:15:28;;;;;;;13.80;2.88;;;3.10;99.90;;;;;;5022291;28;20036;-83
2022/01/05 03:17:53;;;;;;;13.25;2.13;;;3.10;99.90;;;;;;5034232;28;20041;-82
2022/01/05 03:20:20;;;;;;;10.07;2.17;;;3.20;99.90;;;;;;5039502;28;20166;-83
2022/01/05 03:22:46;;;;;;;12.38;1.75;;;3.20;99.90;;;;;;5022933;28;20044;-82
2022/01/05 03:25:15;;;;;;;14.13;2.47;;;3.30;99.90;;;;;;5001819;28;20087;-82
2022/01/05 03:27:45;;;;;;;13.18;2.33;;;3.30;99.90;;;;;;5021449;28;20046;-82
2022/01/05 03:30:12;;;;;;;12.63;2.67;;;3.30;99.90;;;;;;5017375;28;20496;-83
2022/01/05 03:32:50;;;;;;;14.60;2.70;;;3.40;99.90;;;;;;5021819;28;20048;-82
2022/01/05 03:35:16;;;;;;;14.80;2.83;;;3.50;99.90;;;;;;5020759;28;20435;-82
2022/01/05 03:37:41;;;;;;;12.75;2.50;;;3.50;99.90;;;;;;5026348;28;20025;-81
2022/01/05 03:40:08;;;;;;;14.65;2.40;;;3.50;99.90;;;;;;5009515;28;20077;-82
2022/01/05 03:42:33;;;;;;;15.18;3.35;;;3.50;99.90;;;;;;5027577;28;20458;-82
2022/01/05 03:44:59;;;;;;;12.98;2.13;;;3.60;99.90;;;;;;5015802;28;20042;-82
2022/01/05 03:47:24;;;;;;;8.80;2.03;;;3.50;99.90;;;;;;5011325;28;20087;-81
2022/01/05 03:49:50;;;;;;;16.38;2.15;;;3.50;99.90;;;;;;5028790;28;20095;-81
2022/01/05 03:52:15;;;;;;;9.98;1.85;;;3.50;99.90;;;;;;5030937;28;20045;-82
2022/01/05 03:54:41;;;;;;;11.93;2.10;;;3.50;99.90;;;;;;5029041;28;20041;-81
2022/01/05 03:57:06;;;;;;;12.18;2.00;;;3.40;99.90;;;;;;5017775;28;20030;-82
2022/01/05 03:59:32;;;;;;;10.90;2.00;;;3.50;99.90;;;;;;5021452;28;20144;-82
2022/01/05 04:01:57;;;;;;;14.05;2.85;;;3.60;99.90;;;;;;5029048;28;20546;-83
2022/01/05 04:04:23;;;;;;;10.13;1.70;;;3.60;99.90;;;;;;5020133;28;20041;-82
2022/01/05 04:06:48;;;;;;;12.32;1.95;;;3.60;99.90;;;;;;5030711;28;20069;-83
2022/01/05 04:09:14;;;;;;;9.80;2.00;;;3.60;99.90;;;;;;5025162;28;20069;-82
2022/01/05 04:11:39;;;;;;;11.68;1.80;;;3.70;99.90;;;;;;5025749;28;20121;-82
2022/01/05 04:14:05;;;;;;;9.55;1.63;;;3.70;99.90;;;;;;5029164;28;20083;-82
2022/01/05 04:16:30;;;;;;;8.68;1.83;;;3.70;99.90;;;;;;5017003;28;20097;-83
2022/01/05 04:18:56;;;;;;;10.38;1.75;;;3.70;99.90;;;;;;5010470;28;20045;-81
2022/01/05 04:21:21;;;;;;;16.40;2.50;;;3.50;99.90;;;;;;5016863;28;20033;-81
2022/01/05 04:23:47;;;;;;;9.85;1.73;;;3.70;99.90;;;;;;5020622;28;20584;-83
2022/01/05 04:26:12;;;;;;;6.72;1.70;;;3.60;99.90;;;;;;5018911;28;20129;-82
2022/01/05 04:28:40;;;;;;;8.93;1.40;;;3.60;99.90;;;;;;5018740;28;20038;-82
2022/01/05 04:31:05;;;;;;;9.32;1.75;;;3.50;99.90;;;;;;5021543;28;20660;-83
2022/01/05 04:33:31;;;;;;;7.18;1.88;;;3.40;99.90;;;;;;5023567;28;20057;-82
2022/01/05 04:35:56;;;;;;;8.35;2.10;;;3.30;99.90;;;;;;5020261;28;20041;-83
2022/01/05 04:38:22;;;;;;;9.95;1.92;;;3.20;99.90;;;;;;5011732;28;20038;-82
2022/01/05 04:40:47;;;;;;;7.93;1.65;;;3.20;99.90;;;;;;5025816;28;20045;-84
2022/01/05 04:43:14;;;;;;;7.32;1.70;;;3.20;99.90;;;;;;5020346;28;20038;-81
2022/01/05 04:45:39;;;;;;;11.88;1.25;;;3.20;99.90;;;;;;5023589;28;20112;-82
2022/01/05 04:48:05;;;;;;;5.68;1.48;;;3.20;99.90;;;;;;5021674;28;20117;-82
2022/01/05 04:50:31;;;;;;;10.35;2.72;;;3.20;99.90;;;;;;5011060;28;20065;-81
2022/01/05 04:52:56;;;;;;;10.57;2.25;;;3.20;99.90;;;;;;5026468;28;20030;-83
2022/01/05 04:55:22;;;;;;;14.13;2.05;;;3.20;99.90;;;;;;5025546;28;20033;-83
2022/01/05 04:57:47;;;;;;;9.05;1.58;;;3.20;99.90;;;;;;5023054;28;20042;-83
2022/01/05 05:00:13;;;;;;;15.38;2.00;;;3.30;99.90;;;;;;5026663;28;20045;-83
2022/01/05 05:02:39;;;;;;;11.77;2.70;;;3.20;99.90;;;;;;5019873;28;20384;-82
2022/01/05 05:05:04;;;;;;;13.85;2.47;;;3.20;99.90;;;;;;5012638;28;20073;-82
2022/01/05 05:07:30;;;;;;;9.93;1.90;;;3.20;99.90;;;;;;5029586;28;20128;-81
2022/01/05 05:09:55;;;;;;;11.70;2.00;;;3.20;99.90;;;;;;5010495;28;20038;-81
2022/01/05 05:12:21;;;;;;;16.45;2.33;;;3.30;99.90;;;;;;5020179;28;20036;-83
2022/01/05 05:14:47;;;;;;;11.88;1.98;;;3.30;99.90;;;;;;5005628;28;20091;-82
2022/01/05 05:17:12;;;;;;;16.20;2.30;;;3.30;99.90;;;;;;5027890;28;20033;-84
2022/01/05 05:19:38;;;;;;;12.60;2.35;;;3.40;99.90;;;;;;5028864;28;20449;-82
2022/01/05 05:22:04;;;;;;;10.30;2.65;;;3.40;99.90;;;;;;5018017;28;20053;-82
2022/01/05 05:24:29;;;;;;;12.35;2.08;;;3.50;99.90;;;;;;5022589;28;20029;-82
2022/01/05 05:26:55;;;;;;;16.63;2.17;;;3.50;99.90;;;;;;5020424;28;20080;-82
2022/01/05 05:29:20;;;;;;;14.43;2.13;;;3.50;99.90;;;;;;5022805;28;20077;-82
2022/01/05 05:31:46;;;;;;;10.20;2.03;;;3.50;99.90;;;;;;5025200;28;20049;-82
2022/01/05 05:34:11;;;;;;;10.88;1.83;;;3.50;99.90;;;;;;5028087;28;20067;-83
2022/01/05 05:36:37;;;;;;;10.70;2.03;;;3.60;99.90;;;;;;5009043;28;20108;-83
2022/01/05 05:39:02;;;;;;;15.25;2.50;;;3.60;99.90;;;;;;5027762;28;20175;-82
2022/01/05 05:41:28;;;;;;;12.27;2.30;;;3.60;99.90;;;;;;5022247;28;20049;-82
2022/01/05 05:43:53;;;;;;;17.05;2.40;;;3.60;99.90;;;;;;5017072;28;20124;-82
2022/01/05 05:46:19;;;;;;;12.75;2.38;;;3.60;99.90;;;;;;5005575;28;20040;-83
2022/01/05 05:48:46;;;;;;;15.85;3.10;;;3.60;99.90;;;;;;5025741;28;20076;-81
2022/01/05 05:51:12;;;;;;;10.52;2.30;;;3.50;99.90;;;;;;5009855;28;20041;-83
2022/01/05 05:53:37;;;;;;;19.60;2.60;;;3.60;99.90;;;;;;5010133;28;20072;-82
2022/01/05 05:56:03;;;;;;;17.27;2.72;;;3.60;99.90;;;;;;5025043;28;20443;-83
2022/01/05 05:58:29;;;;;;;12.95;2.40;;;3.50;99.90;;;;;;5025398;28;20518;-83
2022/01/05 06:00:55;;;;;;;12.55;2.20;;;3.60;99.90;;;;;;5020172;28;20037;-81
2022/01/05 06:03:20;;;;;;;18.08;2.60;;;3.60;99.90;;;;;;5023244;28;20399;-82
2022/01/05 06:05:46;;;;;;;15.40;2.53;;;3.60;99.90;;;;;;5025350;28;20076;-82
2022/01/05 06:08:11;;;;;;;14.02;2.42;;;3.60;99.90;;;;;;5009395;28;20068;-81
2022/01/05 06:10:37;;;;;;;8.88;1.63;;;3.60;99.90;;;;;;5014482;28;20033;-81
2022/01/05 06:13:02;;;;;;;14.02;2.22;;;3.50;99.90;;;;;;5010629;28;20029;-81
2022/01/05 06:15:28;;;;;;;11.85;2.13;;;3.60;99.90;;;;;;5024388;28;20029;-83
2022/01/05 06:17:53;;;;;;;14.57;2.45;;;3.60;99.90;;;;;;5018410;28;20029;-81
2022/01/05 06:20:19;;;;;;;12.00;1.75;;;3.50;99.90;;;;;;5030130;28;20037;-81
2022/01/05 06:22:44;;;;;;;8.15;1.50;;;3.60;99.90;;;;;;5021786;28;20041;-81
2022/01/05 06:25:11;;;;;;;12.55;1.92;;;3.60;99.90;;;;;;5043961;28;20486;-81
2022/01/05 06:27:38;;;;;;;17.05;3.10;;;3.70;99.90;;;;;;5042121;28;20406;-82
2022/01/05 06:30:06;;;;;;;13.82;2.17;;;3.70;99.90;;;;;;5022174;28;20046;-81
2022/01/05 06:32:41;;;;;;;15.43;2.63;;;3.80;99.90;;;;;;5030742;28;20029;-82
2022/01/05 06:35:07;;;;;;;16.10;2.95;;;3.80;99.90;;;;;;5012245;28;20029;-82
2022/01/05 06:37:32;;;;;;;17.45;2.17;;;3.90;99.90;;;;;;5034181;28;20052;-81
2022/01/05 06:39:58;;;;;;;22.00;2.47;;;3.80;99.90;;;;;;5034194;28;20045;-82
2022/01/05 06:42:23;;;;;;;10.05;1.98;;;3.90;99.90;;;;;;5019531;28;20072;-82
2022/01/05 06:44:49;;;;;;;11.50;1.85;;;3.90;99.90;;;;;;5022294;28;20456;-83
2022/01/05 06:47:15;;;;;;;11.32;2.30;;;4.00;99.90;;;;;;5027584;28;20442;-82
2022/01/05 06:49:40;;;;;;;10.25;1.75;;;4.10;99.90;;;;;;5030694;28;20053;-82
2022/01/05 06:52:06;;;;;;;5.90;1.50;;;4.00;99.90;;;;;;5026789;28;20502;-82
2022/01/05 06:54:32;;;;;;;8.45;1.48;;;4.00;99.90;;;;;;5026427;28;20570;-82
2022/01/05 06:56:57;;;;;;;9.55;2.03;;;4.00;99.90;;;;;;5032045;28;20061;-82
2022/01/05 06:59:23;;;;;;;8.75;1.67;;;4.00;99.90;;;;;;5013618;28;20049;-82
2022/01/05 07:01:48;;;;;;;7.80;1.40;;;4.00;99.90;;;;;;5029995;28;20392;-83
2022/01/05 07:04:14;;;;;;;11.48;1.35;;;4.00;99.90;;;;;;5033404;28;20048;-81
2022/01/05 07:06:40;;;;;;;7.80;1.52;;;4.00;99.90;;;;;;5033508;28;20039;-81
2022/01/05 07:09:06;;;;;;;4.20;0.85;;;4.00;99.90;;;;;;5032739;28;20090;-81
2022/01/05 07:11:32;;;;;;;14.48;1.35;;;4.00;99.90;;;;;;5031857;28;20077;-82
2022/01/05 07:13:58;;;;;;;6.90;1.48;;;3.90;99.90;;;;;;5032602;28;20060;-81
2022/01/05 07:16:23;;;;;;;6.30;1.25;;;3.90;99.90;;;;;;5031559;28;20072;-82
2022/01/05 07:18:49;;;;;;;8.40;1.27;;;3.90;99.90;;;;;;5029761;28;20069;-82
2022/01/05 07:21:14;;;;;;;9.73;1.52;;;3.90;99.90;;;;;;5032231;28;20033;-82
2022/01/05 07:23:40;;;;;;;10.02;1.33;;;3.90;99.90;;;;;;5016717;28;20094;-82
2022/01/05 07:26:05;;;;;;;9.73;2.08;;;3.90;99.90;;;;;;5031390;28;20080;-82
2022/01/05 07:28:31;;;;;;;9.30;1.67;;;3.90;99.90;;;;;;5015279;28;20045;-82
2022/01/05 07:30:57;;;;;;;9.73;1.60;;;3.90;99.90;;;;;;5031336;28;20411;-82
2022/01/05 07:33:24;;;;;;;11.30;1.63;;;4.00;99.90;;;;;;5031341;28;20060;-80
2022/01/05 07:35:50;;;;;;;10.48;1.45;;;4.00;99.90;;;;;;5016264;28;20041;-82
2022/01/05 07:38:15;;;;;;;6.25;1.70;;;4.00;99.90;;;;;;5033568;28;20038;-81
2022/01/05 07:40:41;;;;;;;9.20;2.47;;;4.00;99.90;;;;;;5032579;28;20495;-82
2022/01/05 07:43:07;;;;;;;10.95;1.70;;;4.00;99.90;;;;;;5033054;28;20041;-82
2022/01/05 07:45:35;;;;;;;13.88;2.17;;;4.00;99.90;;;;;;5032789;28;20093;-81
2022/01/05 07:48:02;;;;;;;12.07;1.63;;;4.20;99.90;;;;;;5033017;28;20073;-81
2022/01/05 07:50:28;;;;;;;9.50;1.60;;;4.00;99.90;;;;;;5032861;28;20042;-81
2022/01/05 07:52:54;;;;;;;23.77;3.45;;;4.00;99.90;;;;;;5032859;28;20038;-80
2022/01/05 07:55:20;;;;;;;16.50;1.85;;;4.00;99.90;;;;;;5032550;28;20040;-81
2022/01/05 07:57:45;;;;;;;14.25;2.10;;;4.00;99.90;;;;;;5034133;28;20525;-82
2022/01/05 08:00:11;;;;;;;13.98;2.25;;;4.10;99.90;;;;;;5033930;28;20133;-82
2022/01/05 08:02:37;;;;;;;17.25;2.30;;;4.10;99.90;;;;;;5031902;28;20487;-81
2022/01/05 08:05:03;;;;;;;15.15;1.80;;;4.20;99.90;;;;;;5031079;28;20095;-83
2022/01/05 08:07:29;;;;;;;10.43;1.42;;;4.20;99.90;;;;;;5033021;28;20088;-82
2022/01/05 08:09:54;;;;;;;13.23;1.90;;;4.30;99.90;;;;;;5016062;28;20422;-82
2022/01/05 08:12:20;;;;;;;8.60;1.20;;;4.30;99.90;;;;;;5032608;28;20042;-81
2022/01/05 08:14:45;;;;;;;10.27;1.75;;;4.50;99.90;;;;;;5032139;28;20040;-81
2022/01/05 08:17:11;;;;;;;7.47;0.95;;;4.50;99.90;;;;;;5016025;28;20037;-81
2022/01/05 08:19:36;;;;;;;10.57;1.38;;;4.50;99.90;;;;;;5032574;28;20045;-82
2022/01/05 08:22:02;;;;;;;8.35;1.27;;;4.50;99.90;;;;;;5033544;28;20049;-82
2022/01/05 08:24:28;;;;;;;17.33;1.67;;;4.50;99.90;;;;;;5033604;28;20121;-80
2022/01/05 08:26:53;;;;;;;12.32;1.45;;;4.60;99.90;;;;;;5037419;28;20041;-80
2022/01/05 08:29:19;;;;;;;9.40;1.70;;;4.60;99.90;;;;;;5033615;28;20041;-78
2022/01/05 08:31:45;;;;;;;14.55;2.30;;;4.50;99.90;;;;;;5034542;28;20040;-81
2022/01/05 08:34:11;;;;;;;8.85;1.48;;;4.60;99.90;;;;;;5032292;28;20029;-81
2022/01/05 08:36:37;;;;;;;13.95;1.50;;;4.60;99.90;;;;;;5033003;28;20454;-81
2022/01/05 08:39:03;;;;;;;10.85;1.70;;;4.70;99.90;;;;;;5036102;28;20041;-81
2022/01/05 08:41:29;;;;;;;14.73;2.15;;;4.70;99.90;;;;;;5015449;28;20175;-82
2022/01/05 08:43:55;;;;;;;10.00;1.25;;;4.80;99.90;;;;;;5031482;28;20087;-82
2022/01/05 08:46:21;;;;;;;10.63;1.88;;;4.90;99.90;;;;;;5031252;28;20037;-82
2022/01/05 08:48:47;;;;;;;9.50;1.60;;;4.90;99.90;;;;;;5033611;28;20116;-82
2022/01/05 08:51:12;;;;;;;17.00;2.58;;;5.00;99.90;;;;;;5031586;28;20033;-82
2022/01/05 08:53:38;;;;;;;13.65;2.78;;;5.10;99.90;;;;;;5030384;28;20040;-81
2022/01/05 08:56:04;;;;;;;12.77;1.65;;;5.10;99.90;;;;;;5033621;28;20140;-82
2022/01/05 08:58:29;;;;;;;15.70;1.75;;;5.20;99.90;;;;;;5031113;28;20121;-81
2022/01/05 09:00:55;;;;;;;15.50;1.80;;;5.20;99.90;;;;;;5030966;28;20081;-81
2022/01/05 09:03:21;;;;;;;11.73;1.98;;;5.40;99.90;;;;;;5031493;28;20045;-81
2022/01/05 09:05:46;;;;;;;14.15;1.92;;;5.30;99.90;;;;;;5028542;28;20067;-81
2022/01/05 09:08:13;;;;;;;12.32;2.00;;;5.20;99.90;;;;;;5033080;28;20142;-81
2022/01/05 09:10:39;;;;;;;15.73;2.00;;;5.30;99.90;;;;;;5031785;28;20475;-82
2022/01/05 09:13:05;;;;;;;11.90;1.70;;;5.30;99.90;;;;;;5031697;28;20036;-82
2022/01/05 09:15:33;;;;;;;12.52;2.53;;;5.30;99.90;;;;;;5032482;28;20065;-82
2022/01/05 09:17:59;;;;;;;13.43;1.98;;;5.30;99.90;;;;;;5030955;28;20040;-82
2022/01/05 09:20:25;;;;;;;13.55;2.08;;;5.30;99.90;;;;;;5030699;28;20041;-81
2022/01/05 09:22:50;;;;;;;11.20;1.30;;;5.20;99.90;;;;;;5029882;28;20037;-82
2022/01/05 09:25:18;;;;;;;10.40;1.55;;;5.20;99.90;;;;;;5015167;28;20045;-81
2022/01/05 09:27:44;;;;;;;8.35;1.40;;;5.20;99.90;;;;;;5032184;28;20056;-82
2022/01/05 09:30:12;;;;;;;5.80;1.17;;;5.20;99.90;;;;;;5014011;28;20389;-82
2022/01/05 09:32:39;;;;;;;8.65;1.42;;;5.20;99.90;;;;;;5014136;28;20041;-82
2022/01/05 09:35:06;;;;;;;10.32;1.50;;;5.30;99.90;;;;;;5029938;28;20407;-83
2022/01/05 09:37:36;;;;;;;7.88;1.35;;;5.30;99.90;;;;;;5030435;28;20119;-81
2022/01/05 09:42:46;;;;;;;11.35;1.60;;;5.50;99.90;;;;;;5029853;28;20099;-82
2022/01/05 09:45:19;;;;;;;10.90;2.15;;;5.60;99.90;;;;;;5030428;28;20037;-81
2022/01/05 09:48:10;;;;;;;12.23;1.55;;;5.70;99.90;;;;;;5029028;28;20041;-82
2022/01/05 09:50:42;;;;;;;10.77;1.73;;;5.80;99.90;;;;;;5030590;28;20041;-83
2022/01/05 09:53:08;;;;;;;15.32;2.50;;;5.90;99.90;;;;;;5016304;28;20498;-80
2022/01/05 09:55:34;;;;;;;15.82;2.30;;;6.00;99.90;;;;;;5031508;28;20041;-81
2022/01/05 09:57:59;;;;;;;14.27;2.45;;;6.00;99.90;;;;;;5029847;28;20045;-82
2022/01/05 10:00:25;;;;;;;13.70;2.30;;;6.10;99.90;;;;;;5013605;28;20045;-82
2022/01/05 10:02:51;;;;;;;13.77;2.13;;;6.10;99.90;;;;;;5013589;28;20495;-81
2022/01/05 10:05:17;;;;;;;14.82;2.53;;;6.20;99.90;;;;;;5029472;28;20091;-83
2022/01/05 10:07:43;;;;;;;18.27;2.03;;;6.30;99.90;;;;;;5013471;28;20041;-82
2022/01/05 10:10:10;;;;;;;16.38;2.20;;;6.40;99.90;;;;;;5029667;28;20042;-82
2022/01/05 10:12:36;;;;;;;14.93;2.25;;;6.40;99.90;;;;;;5025930;28;20398;-83
2022/01/05 10:15:02;;;;;;;14.32;1.85;;;6.50;99.90;;;;;;5009445;28;20040;-82
2022/01/05 10:17:31;;;;;;;13.50;2.25;;;6.50;99.90;;;;;;5028373;28;20107;-82
2022/01/05 10:20:09;;;;;;;13.15;1.90;;;6.40;99.90;;;;;;5028803;28;20037;-81
2022/01/05 10:22:43;;;;;;;11.57;1.77;;;6.40;99.90;;;;;;5012385;28;20450;-80
2022/01/05 10:25:23;;;;;;;13.73;2.30;;;6.40;99.90;;;;;;5026739;28;20401;-82
2022/01/05 10:28:02;;;;;;;12.15;2.13;;;6.40;99.90;;;;;;5028956;28;20038;-82
2022/01/05 10:30:39;;;;;;;12.00;2.55;;;6.40;99.90;;;;;;5017977;28;20045;-82
2022/01/05 10:33:06;;;;;;;13.73;2.65;;;6.50;99.90;;;;;;5023163;28;20120;-81
2022/01/05 10:35:32;;;;;;;10.98;2.15;;;6.50;99.90;;;;;;5023141;28;20084;-81
2022/01/05 10:37:59;;;;;;;17.67;2.45;;;6.50;99.90;;;;;;5029568;28;20041;-81
2022/01/05 10:40:25;;;;;;;11.43;1.90;;;6.60;99.90;;;;;;5028631;28;20044;-82
2022/01/05 10:42:54;;;;;;;15.90;2.30;;;6.60;99.90;;;;;;5028328;28;20087;-81
2022/01/05 10:45:39;;;;;;;10.00;2.08;;;6.70;99.90;;;;;;5011382;28;20043;-80
2022/01/05 10:48:16;;;;;;;12.77;1.95;;;6.70;99.90;;;;;;5029236;28;20057;-82
2022/01/05 10:50:43;;;;;;;17.85;2.85;;;6.80;99.90;;;;;;5029611;28;20052;-81
2022/01/05 10:53:13;;;;;;;15.57;2.75;;;6.80;99.90;;;;;;5029427;28;20095;-82
2022/01/05 10:55:42;;;;;;;15.02;2.83;;;6.70;99.90;;;;;;5012553;28;20065;-82
2022/01/05 10:58:11;;;;;;;22.85;2.95;;;6.80;99.90;;;;;;5029767;28;20120;-80
2022/01/05 11:00:43;;;;;;;16.20;3.75;;;6.90;99.90;;;;;;5026284;28;20048;-81
2022/01/05 11:03:35;;;;;;;17.33;2.97;;;7.00;99.90;;;;;;5030434;28;20076;-82
2022/01/05 11:06:17;;;;;;;24.08;4.03;;;7.20;99.90;;;;;;5030532;28;20442;-81
2022/01/05 11:08:52;;;;;;;19.65;3.38;;;7.20;99.90;;;;;;5017329;28;20042;-82
2022/01/05 11:11:38;;;;;;;20.13;3.00;;;7.20;99.90;;;;;;5016952;28;20455;-81
2022/01/05 11:14:09;;;;;;;12.07;2.58;;;7.30;99.90;;;;;;5033463;28;20061;-81
2022/01/05 11:16:39;;;;;;;15.55;2.95;;;7.30;99.90;;;;;;5033080;28;20052;-81
2022/01/05 11:19:29;;;;;;;18.15;3.45;;;7.30;99.90;;;;;;5032152;28;20034;-80
2022/01/05 11:22:04;;;;;;;22.67;4.22;;;7.40;99.90;;;;;;5031821;28;20103;-81
2022/01/05 11:24:39;;;;;;;19.38;2.55;;;7.40;99.90;;;;;;5032308;28;20124;-83
2022/01/05 11:27:07;;;;;;;19.35;3.47;;;7.40;99.90;;;;;;5031499;28;20056;-80
2022/01/05 11:29:33;;;;;;;16.40;3.03;;;7.40;99.90;;;;;;5035002;28;20450;-82
2022/01/05 11:32:03;;;;;;;19.90;3.58;;;7.40;99.90;;;;;;5032431;28;20525;-81
2022/01/05 11:34:30;;;;;;;16.40;3.10;;;7.40;99.90;;;;;;5028770;28;20391;-81
2022/01/05 11:36:56;;;;;;;21.45;3.05;;;7.40;99.90;;;;;;5028390;28;20034;-81
2022/01/05 11:39:22;;;;;;;19.35;3.28;;;7.40;99.90;;;;;;5027361;28;20049;-82
2022/01/05 11:41:50;;;;;;;19.75;2.75;;;7.50;99.90;;;;;;5029829;28;20038;-82
2022/01/05 11:44:17;;;;;;;17.17;2.80;;;7.50;99.90;;;;;;5007150;28;20045;-81
2022/01/05 11:46:45;;;;;;;17.08;3.00;;;7.50;99.90;;;;;;5034428;28;20124;-81
2022/01/05 11:49:14;;;;;;;20.73;2.95;;;7.50;99.90;;;;;;5029361;28;20076;-81
2022/01/05 11:51:42;;;;;;;21.77;3.15;;;7.60;99.90;;;;;;5031943;28;20048;-82
2022/01/05 11:54:14;;;;;;;19.17;3.15;;;7.70;99.90;;;;;;5031400;28;20029;-82
2022/01/05 11:56:41;;;;;;;15.57;2.85;;;7.70;99.90;;;;;;5030063;28;20036;-81
2022/01/05 11:59:23;;;;;;;13.75;2.17;;;7.70;99.90;;;;;;5038864;28;20121;-81
2022/01/05 12:02:06;;;;;;;11.55;2.15;;;7.60;99.90;;;;;;5032317;28;20160;-83
2022/01/05 12:04:51;;;;;;;17.80;3.25;;;7.50;99.90;;;;;;5031788;28;20128;-82
2022/01/05 12:07:55;;;;;;;14.38;1.75;;;7.60;99.90;;;;;;5029381;28;20685;-81
2022/01/05 12:10:23;;;;;;;29.13;4.40;;;7.60;99.90;;;;;;5022995;28;20053;-82
2022/01/05 12:13:05;;;;;;;12.32;2.17;;;7.60;99.90;;;;;;5032823;28;20095;-81
2022/01/05 12:15:44;;;;;;;14.57;2.40;;;7.60;99.90;;;;;;5028763;28;20067;-82
2022/01/05 12:18:10;;;;;;;16.30;2.60;;;7.60;99.90;;;;;;5028504;28;20076;-82
2022/01/05 12:20:40;;;;;;;18.27;2.60;;;7.70;99.90;;;;;;5006301;28;20046;-83
2022/01/05 12:23:30;;;;;;;16.60;2.80;;;7.70;99.90;;;;;;5028793;28;20033;-81
2022/01/05 12:26:16;;;;;;;18.80;2.90;;;7.60;99.90;;;;;;5023951;28;20048;-82
2022/01/05 12:28:54;;;;;;;15.90;2.90;;;7.50;99.90;;;;;;5038099;28;20037;-84
2022/01/05 12:31:56;;;;;;;12.95;2.30;;;7.50;99.90;;;;;;5014001;28;20056;-81
2022/01/05 12:34:53;;;;;;;12.18;2.00;;;7.40;99.90;;;;;;5029844;28;20505;-82
2022/01/05 12:37:56;;;;;;;15.27;2.30;;;7.30;99.90;;;;;;5030982;28;20044;-81
2022/01/05 12:40:42;;;;;;;12.20;2.20;;;7.40;99.90;;;;;;5011028;28;20041;-82
2022/01/05 12:43:08;;;;;;;13.98;2.38;;;7.40;99.90;;;;;;5003582;28;20074;-81
2022/01/05 12:45:49;;;;;;;11.30;2.00;;;7.40;99.90;;;;;;5028173;28;20088;-81
2022/01/05 12:48:33;;;;;;;17.65;2.10;;;7.40;99.90;;;;;;5023818;28;20415;-81
2022/01/05 12:51:17;;;;;;;13.93;2.10;;;7.30;99.90;;;;;;5030383;28;20053;-82
2022/01/05 12:53:52;;;;;;;14.45;2.30;;;7.20;99.90;;;;;;5028702;28;20053;-81
2022/01/05 12:56:46;;;;;;;15.32;2.10;;;7.00;99.90;;;;;;5031110;28;20122;-80